sensor_id;sensor_type;location;lat;lon;timestamp;P1;durP1;ratioP1;P2;durP2;ratioP2
20567;SDS011;10442;49.932;11.592;2023-03-12T00:01:38;3.97;;;3.37;;
20567;SDS011;10442;49.932;11.592;2023-03-12T00:04:02;3.97;;;3.53;;
20567;SDS011;10442;49.932;11.592;2023-03-12T00:06:30;6.67;;;3.73;;
20567;SDS011;10442;49.932;11.592;2023-03-12T00:08:57;5.67;;;4.10;;
20567;SDS011;10442;49.932;11.592;2023-03-12T00:11:27;3.47;;;3.17;;
20567;SDS011;10442;49.932;11.592;2023-03-12T00:13:55;8.13;;;3.23;;
20567;SDS011;10442;49.932;11.592;2023-03-12T00:16:23;7.63;;;4.10;;
20567;SDS011;10442;49.932;11.592;2023-03-12T00:18:52;6.23;;;4.17;;
20567;SDS011;10442;49.932;11.592;2023-03-12T00:21:21;4.27;;;3.40;;
20567;SDS011;10442;49.932;11.592;2023-03-12T00:23:49;4.80;;;3.70;;
20567;SDS011;10442;49.932;11.592;2023-03-12T00:26:18;4.17;;;3.77;;
20567;SDS011;10442;49.932;11.592;2023-03-12T00:28:47;5.30;;;3.57;;
20567;SDS011;10442;49.932;11.592;2023-03-12T00:31:20;4.90;;;3.90;;
20567;SDS011;10442;49.932;11.592;2023-03-12T00:33:49;4.83;;;4.43;;
20567;SDS011;10442;49.932;11.592;2023-03-12T00:36:17;4.50;;;4.10;;
20567;SDS011;10442;49.932;11.592;2023-03-12T00:38:45;5.27;;;4.73;;
20567;SDS011;10442;49.932;11.592;2023-03-12T00:41:12;4.03;;;3.67;;
20567;SDS011;10442;49.932;11.592;2023-03-12T00:43:40;4.47;;;3.40;;
20567;SDS011;10442;49.932;11.592;2023-03-12T00:46:07;4.83;;;3.63;;
20567;SDS011;10442;49.932;11.592;2023-03-12T00:48:35;5.47;;;4.87;;
20567;SDS011;10442;49.932;11.592;2023-03-12T00:51:02;7.03;;;4.80;;
20567;SDS011;10442;49.932;11.592;2023-03-12T00:53:29;4.27;;;3.70;;
20567;SDS011;10442;49.932;11.592;2023-03-12T00:55:57;4.53;;;4.13;;
20567;SDS011;10442;49.932;11.592;2023-03-12T00:58:24;4.37;;;3.53;;
20567;SDS011;10442;49.932;11.592;2023-03-12T01:00:52;4.73;;;3.57;;
20567;SDS011;10442;49.932;11.592;2023-03-12T01:03:19;5.30;;;4.10;;
20567;SDS011;10442;49.932;11.592;2023-03-12T01:05:47;7.53;;;4.57;;
20567;SDS011;10442;49.932;11.592;2023-03-12T01:08:20;9.27;;;4.30;;
20567;SDS011;10442;49.932;11.592;2023-03-12T01:10:48;3.50;;;3.20;;
20567;SDS011;10442;49.932;11.592;2023-03-12T01:13:16;6.33;;;4.67;;
20567;SDS011;10442;49.932;11.592;2023-03-12T01:15:44;6.97;;;4.50;;
20567;SDS011;10442;49.932;11.592;2023-03-12T01:18:11;5.60;;;4.50;;
20567;SDS011;10442;49.932;11.592;2023-03-12T01:20:38;3.83;;;3.40;;
20567;SDS011;10442;49.932;11.592;2023-03-12T01:23:06;4.37;;;3.43;;
20567;SDS011;10442;49.932;11.592;2023-03-12T01:25:34;4.97;;;3.17;;
20567;SDS011;10442;49.932;11.592;2023-03-12T01:28:02;3.30;;;2.87;;
20567;SDS011;10442;49.932;11.592;2023-03-12T01:30:30;4.63;;;3.40;;
20567;SDS011;10442;49.932;11.592;2023-03-12T01:32:58;4.40;;;3.37;;
20567;SDS011;10442;49.932;11.592;2023-03-12T01:35:25;4.37;;;3.90;;
20567;SDS011;10442;49.932;11.592;2023-03-12T01:37:52;3.67;;;3.13;;
20567;SDS011;10442;49.932;11.592;2023-03-12T01:40:22;3.60;;;2.70;;
20567;SDS011;10442;49.932;11.592;2023-03-12T01:42:56;4.17;;;3.30;;
20567;SDS011;10442;49.932;11.592;2023-03-12T01:52:36;3.30;;;2.97;;
20567;SDS011;10442;49.932;11.592;2023-03-12T01:55:10;3.77;;;3.47;;
20567;SDS011;10442;49.932;11.592;2023-03-12T01:57:50;4.60;;;4.20;;
20567;SDS011;10442;49.932;11.592;2023-03-12T02:00:25;4.63;;;3.03;;
20567;SDS011;10442;49.932;11.592;2023-03-12T02:02:56;6.37;;;3.27;;
20567;SDS011;10442;49.932;11.592;2023-03-12T02:07:57;3.93;;;3.63;;
20567;SDS011;10442;49.932;11.592;2023-03-12T02:10:25;2.63;;;2.43;;
20567;SDS011;10442;49.932;11.592;2023-03-12T02:12:53;2.90;;;2.47;;
20567;SDS011;10442;49.932;11.592;2023-03-12T02:15:21;5.93;;;3.63;;
20567;SDS011;10442;49.932;11.592;2023-03-12T02:17:49;4.47;;;3.70;;
20567;SDS011;10442;49.932;11.592;2023-03-12T02:20:19;3.30;;;3.00;;
20567;SDS011;10442;49.932;11.592;2023-03-12T02:23:11;3.37;;;2.60;;
20567;SDS011;10442;49.932;11.592;2023-03-12T02:25:43;3.63;;;2.67;;
20567;SDS011;10442;49.932;11.592;2023-03-12T02:28:14;5.47;;;3.33;;
20567;SDS011;10442;49.932;11.592;2023-03-12T02:30:45;8.03;;;3.33;;
20567;SDS011;10442;49.932;11.592;2023-03-12T02:33:14;32.80;;;7.37;;
20567;SDS011;10442;49.932;11.592;2023-03-12T02:35:43;3.77;;;3.40;;
20567;SDS011;10442;49.932;11.592;2023-03-12T02:44:11;3.33;;;2.80;;
20567;SDS011;10442;49.932;11.592;2023-03-12T02:46:46;3.43;;;3.13;;
20567;SDS011;10442;49.932;11.592;2023-03-12T02:49:16;3.30;;;3.10;;
20567;SDS011;10442;49.932;11.592;2023-03-12T02:51:45;4.27;;;3.20;;
20567;SDS011;10442;49.932;11.592;2023-03-12T02:54:14;2.93;;;2.73;;
20567;SDS011;10442;49.932;11.592;2023-03-12T02:56:43;3.00;;;2.67;;
20567;SDS011;10442;49.932;11.592;2023-03-12T02:59:10;5.13;;;3.03;;
20567;SDS011;10442;49.932;11.592;2023-03-12T03:01:41;4.63;;;3.10;;
20567;SDS011;10442;49.932;11.592;2023-03-12T03:04:09;3.00;;;2.47;;
20567;SDS011;10442;49.932;11.592;2023-03-12T03:06:40;3.13;;;2.90;;
20567;SDS011;10442;49.932;11.592;2023-03-12T03:09:09;4.37;;;3.70;;
20567;SDS011;10442;49.932;11.592;2023-03-12T03:11:37;3.97;;;2.63;;
20567;SDS011;10442;49.932;11.592;2023-03-12T03:14:05;3.00;;;2.80;;
20567;SDS011;10442;49.932;11.592;2023-03-12T03:16:34;5.50;;;2.97;;
20567;SDS011;10442;49.932;11.592;2023-03-12T03:19:02;3.77;;;3.47;;
20567;SDS011;10442;49.932;11.592;2023-03-12T03:21:29;3.73;;;3.20;;
20567;SDS011;10442;49.932;11.592;2023-03-12T03:23:57;3.67;;;3.13;;
20567;SDS011;10442;49.932;11.592;2023-03-12T03:26:25;2.53;;;2.33;;
20567;SDS011;10442;49.932;11.592;2023-03-12T03:28:53;4.27;;;2.93;;
20567;SDS011;10442;49.932;11.592;2023-03-12T03:31:21;3.63;;;3.03;;
20567;SDS011;10442;49.932;11.592;2023-03-12T03:33:49;4.73;;;4.13;;
20567;SDS011;10442;49.932;11.592;2023-03-12T03:36:16;3.73;;;3.43;;
20567;SDS011;10442;49.932;11.592;2023-03-12T03:38:56;3.53;;;2.83;;
20567;SDS011;10442;49.932;11.592;2023-03-12T03:41:23;3.20;;;2.90;;
20567;SDS011;10442;49.932;11.592;2023-03-12T03:43:56;3.97;;;3.63;;
20567;SDS011;10442;49.932;11.592;2023-03-12T03:46:25;3.90;;;3.20;;
20567;SDS011;10442;49.932;11.592;2023-03-12T03:48:58;4.93;;;3.33;;
20567;SDS011;10442;49.932;11.592;2023-03-12T03:51:27;4.33;;;3.33;;
20567;SDS011;10442;49.932;11.592;2023-03-12T03:53:59;4.33;;;3.17;;
20567;SDS011;10442;49.932;11.592;2023-03-12T03:56:27;3.67;;;3.23;;
20567;SDS011;10442;49.932;11.592;2023-03-12T03:58:56;5.90;;;3.20;;
20567;SDS011;10442;49.932;11.592;2023-03-12T04:01:25;4.57;;;3.20;;
20567;SDS011;10442;49.932;11.592;2023-03-12T04:03:54;4.80;;;3.50;;
20567;SDS011;10442;49.932;11.592;2023-03-12T04:06:22;5.87;;;3.20;;
20567;SDS011;10442;49.932;11.592;2023-03-12T04:08:49;5.23;;;3.97;;
20567;SDS011;10442;49.932;11.592;2023-03-12T04:11:19;2.80;;;2.53;;
20567;SDS011;10442;49.932;11.592;2023-03-12T04:13:47;4.27;;;3.17;;
20567;SDS011;10442;49.932;11.592;2023-03-12T04:16:17;4.83;;;3.10;;
20567;SDS011;10442;49.932;11.592;2023-03-12T04:18:46;3.83;;;2.90;;
20567;SDS011;10442;49.932;11.592;2023-03-12T04:21:14;3.83;;;3.00;;
20567;SDS011;10442;49.932;11.592;2023-03-12T04:23:43;5.00;;;3.27;;
20567;SDS011;10442;49.932;11.592;2023-03-12T04:26:12;3.23;;;2.87;;
20567;SDS011;10442;49.932;11.592;2023-03-12T04:28:39;4.40;;;3.23;;
20567;SDS011;10442;49.932;11.592;2023-03-12T04:31:09;5.80;;;3.37;;
20567;SDS011;10442;49.932;11.592;2023-03-12T04:33:42;3.70;;;3.00;;
20567;SDS011;10442;49.932;11.592;2023-03-12T04:36:10;4.17;;;3.10;;
20567;SDS011;10442;49.932;11.592;2023-03-12T04:38:41;2.60;;;2.40;;
20567;SDS011;10442;49.932;11.592;2023-03-12T04:41:10;4.53;;;3.37;;
20567;SDS011;10442;49.932;11.592;2023-03-12T04:43:46;2.87;;;2.60;;
20567;SDS011;10442;49.932;11.592;2023-03-12T04:46:14;3.17;;;2.80;;
20567;SDS011;10442;49.932;11.592;2023-03-12T04:48:43;2.90;;;2.60;;
20567;SDS011;10442;49.932;11.592;2023-03-12T04:51:11;3.63;;;2.67;;
20567;SDS011;10442;49.932;11.592;2023-03-12T04:53:39;3.10;;;2.80;;
20567;SDS011;10442;49.932;11.592;2023-03-12T04:56:09;7.00;;;3.13;;
20567;SDS011;10442;49.932;11.592;2023-03-12T04:58:37;3.97;;;3.13;;
20567;SDS011;10442;49.932;11.592;2023-03-12T05:01:05;3.23;;;2.67;;
20567;SDS011;10442;49.932;11.592;2023-03-12T05:03:33;3.67;;;2.87;;
20567;SDS011;10442;49.932;11.592;2023-03-12T05:06:01;4.10;;;3.20;;
20567;SDS011;10442;49.932;11.592;2023-03-12T05:08:29;3.73;;;3.43;;
20567;SDS011;10442;49.932;11.592;2023-03-12T05:10:56;3.30;;;2.97;;
20567;SDS011;10442;49.932;11.592;2023-03-12T05:13:25;2.93;;;2.67;;
20567;SDS011;10442;49.932;11.592;2023-03-12T05:15:55;5.53;;;3.40;;
20567;SDS011;10442;49.932;11.592;2023-03-12T05:18:23;4.43;;;2.83;;
20567;SDS011;10442;49.932;11.592;2023-03-12T05:21:00;4.33;;;2.67;;
20567;SDS011;10442;49.932;11.592;2023-03-12T05:23:29;3.70;;;2.63;;
20567;SDS011;10442;49.932;11.592;2023-03-12T05:25:57;3.67;;;2.67;;
20567;SDS011;10442;49.932;11.592;2023-03-12T05:28:26;2.90;;;2.70;;
20567;SDS011;10442;49.932;11.592;2023-03-12T05:30:57;3.03;;;2.73;;
20567;SDS011;10442;49.932;11.592;2023-03-12T05:33:26;5.00;;;3.03;;
20567;SDS011;10442;49.932;11.592;2023-03-12T05:35:55;2.93;;;2.73;;
20567;SDS011;10442;49.932;11.592;2023-03-12T05:38:23;4.07;;;2.60;;
20567;SDS011;10442;49.932;11.592;2023-03-12T05:40:55;3.47;;;3.00;;
20567;SDS011;10442;49.932;11.592;2023-03-12T05:43:26;3.47;;;2.67;;
20567;SDS011;10442;49.932;11.592;2023-03-12T05:46:02;3.83;;;2.87;;
20567;SDS011;10442;49.932;11.592;2023-03-12T05:48:32;3.57;;;3.17;;
20567;SDS011;10442;49.932;11.592;2023-03-12T05:51:00;3.10;;;2.90;;
20567;SDS011;10442;49.932;11.592;2023-03-12T05:53:28;2.57;;;2.37;;
20567;SDS011;10442;49.932;11.592;2023-03-12T05:56:00;4.17;;;3.33;;
20567;SDS011;10442;49.932;11.592;2023-03-12T05:58:33;3.00;;;2.80;;
20567;SDS011;10442;49.932;11.592;2023-03-12T06:01:02;4.60;;;2.77;;
20567;SDS011;10442;49.932;11.592;2023-03-12T06:03:37;4.03;;;3.43;;
20567;SDS011;10442;49.932;11.592;2023-03-12T06:06:04;5.00;;;3.23;;
20567;SDS011;10442;49.932;11.592;2023-03-12T06:08:32;3.30;;;3.00;;
20567;SDS011;10442;49.932;11.592;2023-03-12T06:10:59;4.50;;;3.43;;
20567;SDS011;10442;49.932;11.592;2023-03-12T06:13:28;4.17;;;3.47;;
20567;SDS011;10442;49.932;11.592;2023-03-12T06:16:06;3.30;;;3.10;;
20567;SDS011;10442;49.932;11.592;2023-03-12T06:18:37;6.63;;;3.73;;
20567;SDS011;10442;49.932;11.592;2023-03-12T06:23:35;7.23;;;3.33;;
20567;SDS011;10442;49.932;11.592;2023-03-12T06:26:03;4.03;;;3.20;;
20567;SDS011;10442;49.932;11.592;2023-03-12T06:28:30;5.07;;;4.33;;
20567;SDS011;10442;49.932;11.592;2023-03-12T06:30:59;4.50;;;4.10;;
20567;SDS011;10442;49.932;11.592;2023-03-12T06:33:26;6.53;;;4.90;;
20567;SDS011;10442;49.932;11.592;2023-03-12T06:35:58;4.73;;;3.63;;
20567;SDS011;10442;49.932;11.592;2023-03-12T06:38:27;6.83;;;4.40;;
20567;SDS011;10442;49.932;11.592;2023-03-12T06:41:02;4.50;;;4.10;;
20567;SDS011;10442;49.932;11.592;2023-03-12T06:43:35;6.73;;;3.43;;
20567;SDS011;10442;49.932;11.592;2023-03-12T06:46:05;3.97;;;3.60;;
20567;SDS011;10442;49.932;11.592;2023-03-12T06:48:33;3.67;;;3.30;;
20567;SDS011;10442;49.932;11.592;2023-03-12T06:51:02;5.87;;;3.67;;
20567;SDS011;10442;49.932;11.592;2023-03-12T06:53:30;6.03;;;3.43;;
20567;SDS011;10442;49.932;11.592;2023-03-12T06:55:57;7.37;;;3.77;;
20567;SDS011;10442;49.932;11.592;2023-03-12T06:58:25;5.27;;;3.83;;
20567;SDS011;10442;49.932;11.592;2023-03-12T07:00:53;5.37;;;3.77;;
20567;SDS011;10442;49.932;11.592;2023-03-12T07:03:21;4.73;;;4.00;;
20567;SDS011;10442;49.932;11.592;2023-03-12T07:05:49;4.37;;;3.97;;
20567;SDS011;10442;49.932;11.592;2023-03-12T07:08:17;5.60;;;4.10;;
20567;SDS011;10442;49.932;11.592;2023-03-12T07:10:45;6.40;;;4.30;;
20567;SDS011;10442;49.932;11.592;2023-03-12T07:13:12;3.60;;;3.30;;
20567;SDS011;10442;49.932;11.592;2023-03-12T07:15:40;4.93;;;4.30;;
20567;SDS011;10442;49.932;11.592;2023-03-12T07:18:08;4.70;;;3.90;;
20567;SDS011;10442;49.932;11.592;2023-03-12T07:20:37;4.23;;;3.90;;
20567;SDS011;10442;49.932;11.592;2023-03-12T07:23:06;4.33;;;3.53;;
20567;SDS011;10442;49.932;11.592;2023-03-12T07:25:34;5.83;;;5.33;;
20567;SDS011;10442;49.932;11.592;2023-03-12T07:28:03;3.90;;;3.50;;
20567;SDS011;10442;49.932;11.592;2023-03-12T07:30:32;4.47;;;4.07;;
20567;SDS011;10442;49.932;11.592;2023-03-12T07:33:00;4.23;;;3.83;;
20567;SDS011;10442;49.932;11.592;2023-03-12T07:35:29;4.63;;;4.13;;
20567;SDS011;10442;49.932;11.592;2023-03-12T07:37:58;6.33;;;4.60;;
20567;SDS011;10442;49.932;11.592;2023-03-12T07:40:26;8.33;;;4.10;;
20567;SDS011;10442;49.932;11.592;2023-03-12T07:42:54;5.20;;;4.23;;
20567;SDS011;10442;49.932;11.592;2023-03-12T07:45:21;5.53;;;4.17;;
20567;SDS011;10442;49.932;11.592;2023-03-12T07:47:49;6.07;;;3.90;;
20567;SDS011;10442;49.932;11.592;2023-03-12T07:50:18;4.30;;;3.90;;
20567;SDS011;10442;49.932;11.592;2023-03-12T07:52:45;4.53;;;3.73;;
20567;SDS011;10442;49.932;11.592;2023-03-12T07:55:13;5.67;;;4.07;;
20567;SDS011;10442;49.932;11.592;2023-03-12T07:57:42;3.90;;;3.60;;
20567;SDS011;10442;49.932;11.592;2023-03-12T08:00:09;4.90;;;4.22;;
20567;SDS011;10442;49.932;11.592;2023-03-12T08:02:37;5.15;;;3.70;;
20567;SDS011;10442;49.932;11.592;2023-03-12T08:05:05;10.07;;;4.93;;
20567;SDS011;10442;49.932;11.592;2023-03-12T08:07:34;5.38;;;4.47;;
20567;SDS011;10442;49.932;11.592;2023-03-12T08:10:03;3.85;;;3.20;;
20567;SDS011;10442;49.932;11.592;2023-03-12T08:12:32;5.07;;;4.30;;
20567;SDS011;10442;49.932;11.592;2023-03-12T08:15:00;5.00;;;3.80;;
20567;SDS011;10442;49.932;11.592;2023-03-12T08:17:27;5.68;;;4.68;;
20567;SDS011;10442;49.932;11.592;2023-03-12T08:19:54;6.15;;;3.58;;
20567;SDS011;10442;49.932;11.592;2023-03-12T08:22:22;5.30;;;4.22;;
20567;SDS011;10442;49.932;11.592;2023-03-12T08:24:49;3.78;;;3.47;;
20567;SDS011;10442;49.932;11.592;2023-03-12T08:27:17;10.05;;;4.05;;
20567;SDS011;10442;49.932;11.592;2023-03-12T08:29:44;9.35;;;4.03;;
20567;SDS011;10442;49.932;11.592;2023-03-12T08:32:11;10.68;;;4.78;;
20567;SDS011;10442;49.932;11.592;2023-03-12T08:34:40;4.53;;;3.90;;
20567;SDS011;10442;49.932;11.592;2023-03-12T08:37:07;4.45;;;4.05;;
20567;SDS011;10442;49.932;11.592;2023-03-12T08:39:34;4.90;;;4.40;;
20567;SDS011;10442;49.932;11.592;2023-03-12T08:42:02;6.15;;;4.60;;
20567;SDS011;10442;49.932;11.592;2023-03-12T08:44:31;3.60;;;3.30;;
20567;SDS011;10442;49.932;11.592;2023-03-12T08:46:58;4.55;;;3.30;;
20567;SDS011;10442;49.932;11.592;2023-03-12T08:49:25;3.08;;;2.55;;
20567;SDS011;10442;49.932;11.592;2023-03-12T08:51:53;4.10;;;2.90;;
20567;SDS011;10442;49.932;11.592;2023-03-12T08:54:20;3.85;;;2.72;;
20567;SDS011;10442;49.932;11.592;2023-03-12T08:56:48;4.47;;;2.85;;
20567;SDS011;10442;49.932;11.592;2023-03-12T08:59:17;3.65;;;2.78;;
20567;SDS011;10442;49.932;11.592;2023-03-12T09:01:49;6.40;;;3.42;;
20567;SDS011;10442;49.932;11.592;2023-03-12T09:04:16;4.70;;;4.18;;
20567;SDS011;10442;49.932;11.592;2023-03-12T09:06:44;2.60;;;2.40;;
20567;SDS011;10442;49.932;11.592;2023-03-12T09:09:11;3.90;;;2.50;;
20567;SDS011;10442;49.932;11.592;2023-03-12T09:11:39;2.53;;;2.20;;
20567;SDS011;10442;49.932;11.592;2023-03-12T09:14:06;4.53;;;3.08;;
20567;SDS011;10442;49.932;11.592;2023-03-12T09:16:53;2.65;;;2.45;;
20567;SDS011;10442;49.932;11.592;2023-03-12T09:19:21;4.45;;;2.47;;
20567;SDS011;10442;49.932;11.592;2023-03-12T09:21:48;2.67;;;2.45;;
20567;SDS011;10442;49.932;11.592;2023-03-12T09:24:15;4.47;;;2.58;;
20567;SDS011;10442;49.932;11.592;2023-03-12T09:26:43;5.05;;;2.88;;
20567;SDS011;10442;49.932;11.592;2023-03-12T09:29:10;3.08;;;2.72;;
20567;SDS011;10442;49.932;11.592;2023-03-12T09:31:37;3.22;;;2.63;;
20567;SDS011;10442;49.932;11.592;2023-03-12T09:34:05;7.10;;;3.17;;
20567;SDS011;10442;49.932;11.592;2023-03-12T09:36:32;6.63;;;3.08;;
20567;SDS011;10442;49.932;11.592;2023-03-12T09:39:00;3.05;;;2.17;;
20567;SDS011;10442;49.932;11.592;2023-03-12T09:41:29;4.45;;;2.70;;
20567;SDS011;10442;49.932;11.592;2023-03-12T09:49:05;3.33;;;2.38;;
20567;SDS011;10442;49.932;11.592;2023-03-12T09:51:40;2.67;;;2.47;;
20567;SDS011;10442;49.932;11.592;2023-03-12T09:54:28;2.20;;;1.95;;
20567;SDS011;10442;49.932;11.592;2023-03-12T09:57:08;4.35;;;3.22;;
20567;SDS011;10442;49.932;11.592;2023-03-12T09:59:40;2.92;;;2.72;;
20567;SDS011;10442;49.932;11.592;2023-03-12T10:05:00;3.28;;;2.97;;
20567;SDS011;10442;49.932;11.592;2023-03-12T10:07:41;4.40;;;2.72;;
20567;SDS011;10442;49.932;11.592;2023-03-12T10:13:45;3.78;;;2.65;;
20567;SDS011;10442;49.932;11.592;2023-03-12T10:19:06;4.32;;;2.50;;
20567;SDS011;10442;49.932;11.592;2023-03-12T10:24:53;3.40;;;2.83;;
20567;SDS011;10442;49.932;11.592;2023-03-12T10:27:28;2.55;;;2.35;;
20567;SDS011;10442;49.932;11.592;2023-03-12T10:30:00;4.32;;;2.38;;
20567;SDS011;10442;49.932;11.592;2023-03-12T10:32:36;2.85;;;2.65;;
20567;SDS011;10442;49.932;11.592;2023-03-12T10:35:15;12.57;;;2.80;;
20567;SDS011;10442;49.932;11.592;2023-03-12T10:37:52;3.72;;;2.83;;
20567;SDS011;10442;49.932;11.592;2023-03-12T10:40:23;4.80;;;2.40;;
20567;SDS011;10442;49.932;11.592;2023-03-12T10:42:53;4.40;;;2.45;;
20567;SDS011;10442;49.932;11.592;2023-03-12T10:47:58;2.25;;;1.80;;
20567;SDS011;10442;49.932;11.592;2023-03-12T10:50:39;2.92;;;2.53;;
20567;SDS011;10442;49.932;11.592;2023-03-12T10:58:30;4.65;;;2.83;;
20567;SDS011;10442;49.932;11.592;2023-03-12T11:01:00;6.97;;;2.78;;
20567;SDS011;10442;49.932;11.592;2023-03-12T11:03:29;3.80;;;2.58;;
20567;SDS011;10442;49.932;11.592;2023-03-12T11:06:00;4.28;;;2.60;;
20567;SDS011;10442;49.932;11.592;2023-03-12T11:08:33;3.78;;;2.85;;
20567;SDS011;10442;49.932;11.592;2023-03-12T11:11:03;3.47;;;2.80;;
20567;SDS011;10442;49.932;11.592;2023-03-12T11:13:38;4.68;;;2.78;;
20567;SDS011;10442;49.932;11.592;2023-03-12T11:19:02;3.13;;;2.00;;
20567;SDS011;10442;49.932;11.592;2023-03-12T11:21:32;2.80;;;2.42;;
20567;SDS011;10442;49.932;11.592;2023-03-12T11:24:09;3.70;;;2.50;;
20567;SDS011;10442;49.932;11.592;2023-03-12T11:26:48;2.38;;;2.17;;
20567;SDS011;10442;49.932;11.592;2023-03-12T11:29:31;2.22;;;2.03;;
20567;SDS011;10442;49.932;11.592;2023-03-12T11:34:49;2.50;;;2.22;;
20567;SDS011;10442;49.932;11.592;2023-03-12T11:37:35;4.20;;;2.15;;
20567;SDS011;10442;49.932;11.592;2023-03-12T11:40:24;2.40;;;2.00;;
20567;SDS011;10442;49.932;11.592;2023-03-12T11:46:20;6.20;;;2.45;;
20567;SDS011;10442;49.932;11.592;2023-03-12T11:49:01;2.88;;;2.22;;
20567;SDS011;10442;49.932;11.592;2023-03-12T11:57:36;3.75;;;1.98;;
20567;SDS011;10442;49.932;11.592;2023-03-12T12:00:17;5.20;;;2.20;;
20567;SDS011;10442;49.932;11.592;2023-03-12T12:03:04;3.17;;;2.03;;
20567;SDS011;10442;49.932;11.592;2023-03-12T12:05:58;2.42;;;1.83;;
20567;SDS011;10442;49.932;11.592;2023-03-12T12:08:55;2.95;;;1.90;;
20567;SDS011;10442;49.932;11.592;2023-03-12T12:11:36;5.15;;;2.15;;
20567;SDS011;10442;49.932;11.592;2023-03-12T12:19:53;5.75;;;2.33;;
20567;SDS011;10442;49.932;11.592;2023-03-12T12:22:48;1.80;;;1.70;;
20567;SDS011;10442;49.932;11.592;2023-03-12T12:36:59;3.53;;;2.10;;
20567;SDS011;10442;49.932;11.592;2023-03-12T12:39:52;3.85;;;2.13;;
20567;SDS011;10442;49.932;11.592;2023-03-12T12:42:48;2.00;;;1.90;;
20567;SDS011;10442;49.932;11.592;2023-03-12T12:45:21;2.95;;;2.22;;
20567;SDS011;10442;49.932;11.592;2023-03-12T12:47:56;3.78;;;2.15;;
20567;SDS011;10442;49.932;11.592;2023-03-12T12:50:38;5.53;;;2.93;;
20567;SDS011;10442;49.932;11.592;2023-03-12T12:56:19;4.78;;;2.55;;
20567;SDS011;10442;49.932;11.592;2023-03-12T13:01:23;4.97;;;2.63;;
20567;SDS011;10442;49.932;11.592;2023-03-12T13:03:55;3.47;;;2.45;;
20567;SDS011;10442;49.932;11.592;2023-03-12T13:06:51;4.85;;;2.47;;
20567;SDS011;10442;49.932;11.592;2023-03-12T13:09:35;5.57;;;2.57;;
20567;SDS011;10442;49.932;11.592;2023-03-12T13:20:36;6.85;;;2.70;;
20567;SDS011;10442;49.932;11.592;2023-03-12T13:23:40;6.73;;;3.07;;
20567;SDS011;10442;49.932;11.592;2023-03-12T13:26:41;4.00;;;3.07;;
20567;SDS011;10442;49.932;11.592;2023-03-12T13:29:39;3.13;;;2.53;;
20567;SDS011;10442;49.932;11.592;2023-03-12T13:32:09;2.70;;;2.50;;
20567;SDS011;10442;49.932;11.592;2023-03-12T13:35:06;3.63;;;2.93;;
20567;SDS011;10442;49.932;11.592;2023-03-12T13:43:10;3.23;;;2.57;;
20567;SDS011;10442;49.932;11.592;2023-03-12T13:46:04;3.93;;;3.17;;
20567;SDS011;10442;49.932;11.592;2023-03-12T13:48:34;3.73;;;3.40;;
20567;SDS011;10442;49.932;11.592;2023-03-12T13:51:09;6.90;;;3.50;;
20567;SDS011;10442;49.932;11.592;2023-03-12T13:53:42;5.20;;;3.13;;
20567;SDS011;10442;49.932;11.592;2023-03-12T13:56:18;4.97;;;2.67;;
20567;SDS011;10442;49.932;11.592;2023-03-12T13:58:55;4.82;;;3.00;;
20567;SDS011;10442;49.932;11.592;2023-03-12T14:01:25;4.20;;;3.17;;
20567;SDS011;10442;49.932;11.592;2023-03-12T14:04:03;4.63;;;3.20;;
20567;SDS011;10442;49.932;11.592;2023-03-12T14:06:36;3.27;;;2.83;;
20567;SDS011;10442;49.932;11.592;2023-03-12T14:09:31;3.33;;;3.03;;
20567;SDS011;10442;49.932;11.592;2023-03-12T14:12:08;4.53;;;3.63;;
20567;SDS011;10442;49.932;11.592;2023-03-12T14:17:28;3.47;;;3.00;;
20567;SDS011;10442;49.932;11.592;2023-03-12T14:20:02;4.40;;;3.73;;
20567;SDS011;10442;49.932;11.592;2023-03-12T14:22:37;3.83;;;3.40;;
20567;SDS011;10442;49.932;11.592;2023-03-12T14:25:42;3.87;;;3.03;;
20567;SDS011;10442;49.932;11.592;2023-03-12T14:28:03;3.50;;;2.80;;
20567;SDS011;10442;49.932;11.592;2023-03-12T14:30:47;3.87;;;3.13;;
20567;SDS011;10442;49.932;11.592;2023-03-12T14:33:31;4.43;;;3.87;;
20567;SDS011;10442;49.932;11.592;2023-03-12T14:36:03;3.93;;;3.40;;
20567;SDS011;10442;49.932;11.592;2023-03-12T14:38:42;4.40;;;3.47;;
20567;SDS011;10442;49.932;11.592;2023-03-12T14:41:28;3.60;;;3.30;;
20567;SDS011;10442;49.932;11.592;2023-03-12T14:44:04;3.23;;;3.03;;
20567;SDS011;10442;49.932;11.592;2023-03-12T14:46:45;3.07;;;2.87;;
20567;SDS011;10442;49.932;11.592;2023-03-12T14:49:25;4.63;;;3.60;;
20567;SDS011;10442;49.932;11.592;2023-03-12T14:51:53;3.33;;;3.03;;
20567;SDS011;10442;49.932;11.592;2023-03-12T14:54:22;3.00;;;2.70;;
20567;SDS011;10442;49.932;11.592;2023-03-12T14:56:52;3.73;;;2.60;;
20567;SDS011;10442;49.932;11.592;2023-03-12T14:59:27;4.17;;;3.77;;
20567;SDS011;10442;49.932;11.592;2023-03-12T15:02:03;2.87;;;2.67;;
20567;SDS011;10442;49.932;11.592;2023-03-12T15:04:37;3.53;;;3.23;;
20567;SDS011;10442;49.932;11.592;2023-03-12T15:07:08;4.10;;;3.70;;
20567;SDS011;10442;49.932;11.592;2023-03-12T15:09:40;3.40;;;3.10;;
20567;SDS011;10442;49.932;11.592;2023-03-12T15:12:17;4.53;;;3.00;;
20567;SDS011;10442;49.932;11.592;2023-03-12T15:14:47;3.33;;;3.13;;
20567;SDS011;10442;49.932;11.592;2023-03-12T15:17:19;3.23;;;2.67;;
20567;SDS011;10442;49.932;11.592;2023-03-12T15:19:50;4.73;;;3.60;;
20567;SDS011;10442;49.932;11.592;2023-03-12T15:22:21;3.77;;;3.23;;
20567;SDS011;10442;49.932;11.592;2023-03-12T15:24:50;3.63;;;3.33;;
20567;SDS011;10442;49.932;11.592;2023-03-12T15:29:54;3.17;;;2.77;;
20567;SDS011;10442;49.932;11.592;2023-03-12T15:32:23;3.53;;;3.23;;
20567;SDS011;10442;49.932;11.592;2023-03-12T15:34:52;3.77;;;3.20;;
20567;SDS011;10442;49.932;11.592;2023-03-12T15:37:24;3.83;;;3.57;;
20567;SDS011;10442;49.932;11.592;2023-03-12T15:40:00;4.23;;;3.33;;
20567;SDS011;10442;49.932;11.592;2023-03-12T15:42:35;3.13;;;2.93;;
20567;SDS011;10442;49.932;11.592;2023-03-12T15:45:13;3.90;;;3.60;;
20567;SDS011;10442;49.932;11.592;2023-03-12T15:47:45;3.07;;;2.87;;
20567;SDS011;10442;49.932;11.592;2023-03-12T15:52:57;3.73;;;3.03;;
20567;SDS011;10442;49.932;11.592;2023-03-12T15:55:32;4.20;;;3.00;;
20567;SDS011;10442;49.932;11.592;2023-03-12T15:58:01;3.63;;;3.27;;
20567;SDS011;10442;49.932;11.592;2023-03-12T16:00:50;4.07;;;3.30;;
20567;SDS011;10442;49.932;11.592;2023-03-12T16:03:18;2.87;;;2.67;;
20567;SDS011;10442;49.932;11.592;2023-03-12T16:05:47;3.47;;;2.90;;
20567;SDS011;10442;49.932;11.592;2023-03-12T16:10:48;3.17;;;2.67;;
20567;SDS011;10442;49.932;11.592;2023-03-12T16:13:17;2.63;;;2.50;;
20567;SDS011;10442;49.932;11.592;2023-03-12T16:16:03;3.00;;;2.70;;
20567;SDS011;10442;49.932;11.592;2023-03-12T16:18:30;2.57;;;2.37;;
20567;SDS011;10442;49.932;11.592;2023-03-12T16:20:57;2.40;;;2.20;;
20567;SDS011;10442;49.932;11.592;2023-03-12T16:23:25;2.30;;;2.20;;
20567;SDS011;10442;49.932;11.592;2023-03-12T16:25:52;2.20;;;2.00;;
20567;SDS011;10442;49.932;11.592;2023-03-12T16:28:22;4.63;;;3.17;;
20567;SDS011;10442;49.932;11.592;2023-03-12T16:30:50;3.47;;;3.17;;
20567;SDS011;10442;49.932;11.592;2023-03-12T16:33:19;3.90;;;3.03;;
20567;SDS011;10442;49.932;11.592;2023-03-12T16:35:48;3.43;;;3.13;;
20567;SDS011;10442;49.932;11.592;2023-03-12T16:38:15;4.10;;;3.70;;
20567;SDS011;10442;49.932;11.592;2023-03-12T16:40:44;3.90;;;3.60;;
20567;SDS011;10442;49.932;11.592;2023-03-12T16:43:21;4.23;;;3.33;;
20567;SDS011;10442;49.932;11.592;2023-03-12T16:45:50;3.97;;;3.67;;